createdAt,value
2018-12-29T00:01:37.948Z,99602.71
2018-12-29T00:04:10.013Z,99602.55
2018-12-29T00:06:42.014Z,99604.37
2018-12-29T00:09:14.020Z,99609.41
2018-12-29T00:11:46.046Z,99618.59
2018-12-29T00:14:18.055Z,99622.17
2018-12-29T00:16:50.046Z,99625.78
2018-12-29T00:19:22.076Z,99633.52
2018-12-29T00:21:54.120Z,99636.39
2018-12-29T00:24:26.108Z,99630.83
2018-12-29T00:26:58.092Z,99630.75
2018-12-29T00:29:30.167Z,99622.34
2018-12-29T00:32:02.143Z,99627.05
2018-12-29T00:34:34.181Z,99630.99
2018-12-29T00:37:06.182Z,99636.23
2018-12-29T00:39:38.192Z,99625.26
2018-12-29T00:42:10.325Z,99620.05
2018-12-29T00:44:42.318Z,99609.97
2018-12-29T00:47:14.338Z,99616.80
2018-12-29T00:49:46.360Z,99628.14
2018-12-29T00:52:18.380Z,99626.88
2018-12-29T00:54:50.391Z,99630.66
2018-12-29T00:57:22.404Z,99634.27
2018-12-29T00:59:54.398Z,99632.48
2018-12-29T01:02:26.415Z,99631.44
2018-12-29T01:04:58.426Z,99631.22
2018-12-29T01:07:30.456Z,99641.87
2018-12-29T01:10:02.620Z,99655.53
2018-12-29T01:12:34.623Z,99670.09
2018-12-29T01:15:10.033Z,99682.85
2018-12-29T01:17:40.480Z,99678.14
2018-12-29T01:20:12.476Z,99685.20
2018-12-29T01:22:44.465Z,99688.98
2018-12-29T01:25:16.435Z,99685.38
2018-12-29T01:27:48.428Z,99670.63
2018-12-29T01:30:20.388Z,99676.03
2018-12-29T01:32:52.390Z,99675.53
2018-12-29T01:35:24.356Z,99682.33
2018-12-29T01:37:56.360Z,99687.36
2018-12-29T01:40:28.328Z,99686.47
2018-12-29T01:43:00.316Z,99695.66
2018-12-29T01:45:32.274Z,99697.98
2018-12-29T01:48:04.271Z,99696.56
2018-12-29T01:50:36.232Z,99699.48
2018-12-29T01:53:08.232Z,99699.08
2018-12-29T01:55:40.208Z,99707.00
2018-12-29T01:58:12.195Z,99705.91
2018-12-29T02:00:44.136Z,99702.86
2018-12-29T02:03:16.143Z,99709.36
2018-12-29T02:05:48.111Z,99709.48
2018-12-29T02:08:20.087Z,99710.78
2018-12-29T02:10:52.095Z,99708.99
2018-12-29T02:13:24.068Z,99702.49
2018-12-29T02:15:56.074Z,99708.59
2018-12-29T02:18:28.073Z,99705.02
2018-12-29T02:21:00.069Z,99702.70
2018-12-29T02:23:32.040Z,99701.64
2018-12-29T02:26:04.029Z,99701.47
2018-12-29T02:28:35.966Z,99701.44
2018-12-29T02:31:07.977Z,99698.63
2018-12-29T02:33:39.948Z,99700.54
2018-12-29T02:36:11.929Z,99690.30
2018-12-29T02:38:43.964Z,99690.63
2018-12-29T02:41:15.959Z,99685.95
2018-12-29T02:43:47.905Z,99677.12
2018-12-29T02:46:19.890Z,99666.34
2018-12-29T02:48:51.863Z,99655.90
2018-12-29T02:51:23.861Z,99647.97
2018-12-29T02:53:55.841Z,99643.15
2018-12-29T02:56:27.808Z,99648.16
2018-12-29T02:58:59.777Z,99652.12
2018-12-29T03:01:31.756Z,99655.17
2018-12-29T03:04:03.741Z,99679.28
2018-12-29T03:06:35.725Z,99671.02
2018-12-29T03:09:07.697Z,99670.30
2018-12-29T03:11:39.798Z,99660.41
2018-12-29T03:14:11.743Z,99648.87
2018-12-29T03:16:43.735Z,99649.56
2018-12-29T03:19:15.724Z,99631.76
2018-12-29T03:21:47.695Z,99630.69
2018-12-29T03:24:19.686Z,99636.59
2018-12-29T03:26:51.676Z,99642.56
2018-12-29T03:29:23.679Z,99649.23
2018-12-29T03:31:55.673Z,99655.00
2018-12-29T03:34:27.626Z,99656.23
2018-12-29T03:36:59.612Z,99639.52
2018-12-29T03:39:31.708Z,99636.09
2018-12-29T03:42:04.036Z,99638.98
2018-12-29T03:44:36.023Z,99640.61
2018-12-29T03:47:08.016Z,99651.22
2018-12-29T03:49:40.003Z,99655.70
2018-12-29T03:52:11.958Z,99658.22
2018-12-29T03:54:43.989Z,99676.39
2018-12-29T03:57:15.970Z,99667.73
2018-12-29T03:59:47.938Z,99657.85
2018-12-29T04:02:19.940Z,99659.68
2018-12-29T04:04:51.928Z,99656.63
2018-12-29T04:07:23.881Z,99668.14
2018-12-29T04:09:55.848Z,99657.69
2018-12-29T04:12:30.340Z,99662.59
2018-12-29T04:15:02.312Z,99650.52
2018-12-29T04:17:34.281Z,99658.45
2018-12-29T04:20:06.258Z,99656.66
2018-12-29T04:22:38.221Z,99659.70
2018-12-29T04:25:10.201Z,99655.19
2018-12-29T04:27:42.176Z,99634.30
2018-12-29T04:30:14.122Z,99630.89
2018-12-29T04:32:46.100Z,99639.19
2018-12-29T04:35:18.079Z,99632.33
2018-12-29T04:37:50.030Z,99633.61
2018-12-29T04:40:22.025Z,99634.33
2018-12-29T04:42:54.040Z,99640.45
2018-12-29T04:45:26.032Z,99628.74
2018-12-29T04:47:57.974Z,99625.51
2018-12-29T04:50:29.951Z,99624.59
2018-12-29T04:53:01.929Z,99617.75
2018-12-29T04:55:33.975Z,99615.77
2018-12-29T04:58:05.924Z,99624.59
2018-12-29T05:00:37.910Z,99614.50
2018-12-29T05:03:09.902Z,99617.02
2018-12-29T05:05:41.891Z,99611.97
2018-12-29T05:08:13.860Z,99616.32
2018-12-29T05:10:45.849Z,99619.91
2018-12-29T05:13:17.924Z,99628.57
2018-12-29T05:15:49.924Z,99623.52
2018-12-29T05:18:21.890Z,99623.33
2018-12-29T05:20:53.893Z,99622.97
2018-12-29T05:23:25.879Z,99623.70
2018-12-29T05:25:57.852Z,99636.86
2018-12-29T05:28:29.850Z,99646.59
2018-12-29T05:31:01.805Z,99649.27
2018-12-29T05:33:33.764Z,99647.66
2018-12-29T05:36:05.711Z,99658.64
2018-12-29T05:38:37.698Z,99663.14
2018-12-29T05:41:09.680Z,99664.38
2018-12-29T05:43:41.689Z,99659.89
2018-12-29T05:46:20.138Z,99662.95
2018-12-29T05:48:47.583Z,99665.84
2018-12-29T05:51:19.537Z,99670.69
2018-12-29T05:53:51.529Z,99674.11
2018-12-29T05:56:23.512Z,99683.46
2018-12-29T05:58:55.471Z,99689.77
2018-12-29T06:01:27.449Z,99683.30
2018-12-29T06:03:59.465Z,99690.13
2018-12-29T06:06:31.425Z,99681.34
2018-12-29T06:09:05.434Z,99679.01
2018-12-29T06:11:37.403Z,99693.05
2018-12-29T06:14:09.358Z,99691.75
2018-12-29T06:16:41.325Z,99685.45
2018-12-29T06:19:13.284Z,99690.69
2018-12-29T06:21:45.236Z,99693.38
2018-12-29T06:24:17.211Z,99694.48
2018-12-29T06:26:49.174Z,99693.75
2018-12-29T06:29:21.157Z,99696.63
2018-12-29T06:31:53.213Z,99696.06
2018-12-29T06:34:25.185Z,99708.14
2018-12-29T06:36:57.147Z,99708.91
2018-12-29T06:39:29.141Z,99705.82
2018-12-29T06:42:01.091Z,99713.22
2018-12-29T06:44:33.101Z,99720.05
2018-12-29T06:47:05.101Z,99713.91
2018-12-29T06:49:37.081Z,99708.51
2018-12-29T06:52:09.050Z,99708.14
2018-12-29T06:54:41.031Z,99710.13
2018-12-29T06:57:13.026Z,99714.81
2018-12-29T06:59:44.972Z,99709.37
2018-12-29T07:02:16.979Z,99709.73
2018-12-29T07:04:48.924Z,99703.09
2018-12-29T07:07:20.928Z,99707.78
2018-12-29T07:09:52.913Z,99707.21
2018-12-29T07:12:24.913Z,99705.05
2018-12-29T07:14:56.875Z,99716.20
2018-12-29T07:17:28.867Z,99714.94
2018-12-29T07:20:00.823Z,99710.98
2018-12-29T07:22:32.837Z,99717.09
2018-12-29T07:25:04.797Z,99715.83
2018-12-29T07:27:36.784Z,99716.23
2018-12-29T07:30:08.743Z,99724.69
2018-12-29T07:32:40.718Z,99723.96
2018-12-29T07:35:12.698Z,99734.61
2018-12-29T07:37:44.673Z,99733.87
2018-12-29T07:40:16.650Z,99733.35
2018-12-29T07:42:48.682Z,99736.94
2018-12-29T07:45:20.650Z,99737.67
2018-12-29T07:47:52.649Z,99735.14
2018-12-29T07:50:24.625Z,99734.25
2018-12-29T07:52:56.580Z,99735.14
2018-12-29T07:55:28.564Z,99733.89
2018-12-29T07:58:00.536Z,99734.25
2018-12-29T08:00:32.588Z,99736.24
2018-12-29T08:03:04.600Z,99732.46
2018-12-29T08:05:36.577Z,99738.07
2018-12-29T08:08:08.564Z,99755.32
2018-12-29T08:10:40.533Z,99761.98
2018-12-29T08:13:12.517Z,99767.02
2018-12-29T08:15:44.490Z,99764.50
2018-12-29T08:18:16.488Z,99754.41
2018-12-29T08:20:48.460Z,99749.05
2018-12-29T08:23:20.459Z,99749.95
2018-12-29T08:25:52.469Z,99747.06
2018-12-29T08:28:24.453Z,99748.13
2018-12-29T08:30:56.438Z,99749.22
2018-12-29T08:33:28.446Z,99746.53
2018-12-29T08:36:00.459Z,99763.29
2018-12-29T08:38:32.475Z,99763.24
2018-12-29T08:41:04.502Z,99762.36
2018-12-29T08:43:36.455Z,99771.79
2018-12-29T08:46:08.471Z,99765.28
2018-12-29T08:48:40.452Z,99771.42
2018-12-29T08:51:12.443Z,99775.41
2018-12-29T08:53:44.417Z,99772.52
2018-12-29T08:56:16.439Z,99778.86
2018-12-29T08:58:48.456Z,99782.28
2018-12-29T09:01:20.462Z,99772.02
2018-12-29T09:03:52.468Z,99778.16
2018-12-29T09:06:24.469Z,99776.90
2018-12-29T09:08:56.436Z,99777.27
2018-12-29T09:11:28.460Z,99783.57
2018-12-29T09:14:00.443Z,99786.09
2018-12-29T09:16:32.445Z,99787.55
2018-12-29T09:19:04.426Z,99794.19
2018-12-29T09:21:36.398Z,99795.28
2018-12-29T09:24:08.417Z,99796.38
2018-12-29T09:26:40.418Z,99798.02
2018-12-29T09:29:12.438Z,99793.31
2018-12-29T09:31:44.458Z,99795.30
2018-12-29T09:34:22.364Z,99797.31
2018-12-29T09:36:50.489Z,99797.13
2018-12-29T09:39:22.438Z,99787.55
2018-12-29T09:41:54.441Z,99789.72
2018-12-29T09:44:26.440Z,99779.64
2018-12-29T09:46:58.426Z,99786.48
2018-12-29T09:49:30.462Z,99780.73
2018-12-29T09:52:02.447Z,99791.70
2018-12-29T09:54:34.479Z,99796.23
2018-12-29T09:57:06.448Z,99798.40
2018-12-29T09:59:38.466Z,99797.50
2018-12-29T10:02:10.469Z,99795.69
2018-12-29T10:04:42.563Z,99794.22
2018-12-29T10:07:14.553Z,99791.88
2018-12-29T10:09:46.586Z,99792.63
2018-12-29T10:12:18.549Z,99787.94
2018-12-29T10:14:50.577Z,99787.03
2018-12-29T10:17:26.890Z,99785.95
2018-12-29T10:19:56.493Z,99783.58
2018-12-29T10:22:28.511Z,99782.88
2018-12-29T10:25:00.519Z,99784.47
2018-12-29T10:27:32.505Z,99784.30
2018-12-29T10:30:04.923Z,99784.12
2018-12-29T10:32:36.912Z,99787.17
2018-12-29T10:35:08.973Z,99782.50
2018-12-29T10:37:40.958Z,99780.15
2018-12-29T10:40:12.989Z,99777.80
2018-12-29T10:42:44.985Z,99774.76
2018-12-29T10:45:16.997Z,99779.78
2018-12-29T10:47:48.982Z,99779.23
2018-12-29T10:50:21.115Z,99770.75
2018-12-29T10:52:53.108Z,99773.63
2018-12-29T10:55:25.100Z,99767.31
2018-12-29T10:57:57.092Z,99772.02
2018-12-29T11:00:34.892Z,99768.41
2018-12-29T11:03:03.047Z,99764.98
2018-12-29T11:05:35.114Z,99765.14
2018-12-29T11:08:07.176Z,99767.67
2018-12-29T11:10:39.198Z,99763.55
2018-12-29T11:13:11.207Z,99764.64
2018-12-29T11:15:43.193Z,99760.51
2018-12-29T11:18:15.245Z,99753.61
2018-12-29T11:20:47.283Z,99745.27
2018-12-29T11:23:19.359Z,99748.50
2018-12-29T11:25:51.370Z,99740.39
2018-12-29T11:28:23.385Z,99738.04
2018-12-29T11:30:55.432Z,99732.23
2018-12-29T11:33:27.428Z,99726.56
2018-12-29T11:35:59.418Z,99723.47
2018-12-29T11:38:31.604Z,99724.59
2018-12-29T11:41:03.581Z,99721.88
2018-12-29T11:43:35.592Z,99724.55
2018-12-29T11:46:07.569Z,99720.46
2018-12-29T11:48:39.591Z,99716.12
2018-12-29T11:51:11.596Z,99710.83
2018-12-29T11:53:43.615Z,99694.71
2018-12-29T11:56:15.648Z,99692.02
2018-12-29T11:58:47.675Z,99686.30
2018-12-29T12:01:19.690Z,99689.91
2018-12-29T12:03:51.782Z,99688.98
2018-12-29T12:06:23.799Z,99700.03
2018-12-29T12:08:55.833Z,99698.92
2018-12-29T12:11:27.837Z,99699.66
2018-12-29T12:13:59.862Z,99712.09
2018-12-29T12:16:31.876Z,99704.88
2018-12-29T12:19:03.890Z,99703.25
2018-12-29T12:21:35.899Z,99712.47
2018-12-29T12:24:07.877Z,99697.34
2018-12-29T12:26:39.851Z,99698.16
2018-12-29T12:29:11.887Z,99693.78
2018-12-29T12:31:44.214Z,99695.27
2018-12-29T12:34:16.232Z,99694.19
2018-12-29T12:36:48.211Z,99693.78
2018-12-29T12:39:20.226Z,99699.59
2018-12-29T12:41:52.257Z,99694.89
2018-12-29T12:44:24.214Z,99695.45
2018-12-29T12:46:56.234Z,99694.19
2018-12-29T12:49:28.270Z,99691.31
2018-12-29T12:52:00.290Z,99686.67
2018-12-29T12:54:32.276Z,99682.80
2018-12-29T12:57:04.309Z,99673.06
2018-12-29T12:59:36.715Z,99668.89
2018-12-29T13:02:08.726Z,99665.81
2018-12-29T13:04:41.154Z,99659.14
2018-12-29T13:07:13.177Z,99652.48
2018-12-29T13:09:46.543Z,99649.98
2018-12-29T13:12:18.647Z,99647.39
2018-12-29T13:14:51.072Z,99645.73
2018-12-29T13:17:23.107Z,99631.82
2018-12-29T13:19:55.122Z,99626.39
2018-12-29T13:22:27.149Z,99618.65
2018-12-29T13:24:59.560Z,99620.84
2018-12-29T13:27:31.605Z,99618.13
2018-12-29T13:30:04.056Z,99617.91
2018-12-29T13:32:36.109Z,99613.37
2018-12-29T13:35:08.550Z,99624.23
2018-12-29T13:37:40.531Z,99616.71
2018-12-29T13:40:12.536Z,99619.36
2018-12-29T13:42:44.515Z,99614.86
2018-12-29T13:45:16.736Z,99604.92
2018-12-29T13:47:48.788Z,99606.38
2018-12-29T13:50:20.817Z,99600.23
2018-12-29T13:52:52.817Z,99610.29
2018-12-29T13:55:25.100Z,99605.27
2018-12-29T13:57:57.127Z,99598.91
2018-12-29T14:00:29.117Z,99604.48
2018-12-29T14:03:01.147Z,99596.56
2018-12-29T14:05:33.151Z,99594.59
2018-12-29T14:08:05.184Z,99588.11
2018-12-29T14:10:37.158Z,99582.56
2018-12-29T14:13:09.163Z,99579.33
2018-12-29T14:15:41.197Z,99585.47
2018-12-29T14:18:13.202Z,99585.47
2018-12-29T14:20:45.215Z,99581.30
2018-12-29T14:23:17.232Z,99577.84
2018-12-29T14:25:49.274Z,99576.62
2018-12-29T14:28:21.305Z,99575.57
2018-12-29T14:30:53.307Z,99571.10
2018-12-29T14:33:25.353Z,99576.31
2018-12-29T14:35:57.364Z,99576.47
2018-12-29T14:38:29.372Z,99586.95
2018-12-29T14:41:01.397Z,99585.31
2018-12-29T14:43:33.381Z,99588.77
2018-12-29T14:46:05.392Z,99597.74
2018-12-29T14:48:37.418Z,99604.63
2018-12-29T14:51:09.479Z,99592.34
2018-12-29T14:53:41.459Z,99594.50
2018-12-29T14:56:13.514Z,99599.38
2018-12-29T14:58:45.496Z,99599.72
2018-12-29T15:01:17.509Z,99609.46
2018-12-29T15:03:49.517Z,99617.76
2018-12-29T15:06:21.530Z,99621.33
2018-12-29T15:08:53.562Z,99627.87
2018-12-29T15:11:25.639Z,99632.56
2018-12-29T15:13:57.675Z,99623.89
2018-12-29T15:16:29.730Z,99621.55
2018-12-29T15:19:01.753Z,99612.36
2018-12-29T15:21:34.163Z,99593.39
2018-12-29T15:24:06.193Z,99585.91
2018-12-29T15:26:38.242Z,99583.22
2018-12-29T15:29:10.674Z,99584.36
2018-12-29T15:31:42.726Z,99580.56
2018-12-29T15:34:14.818Z,99577.54
2018-12-29T15:36:46.834Z,99578.48
2018-12-29T15:39:20.663Z,99582.83
2018-12-29T15:41:52.693Z,99580.12
2018-12-29T15:44:24.807Z,99574.72
2018-12-29T15:46:57.169Z,99569.27
2018-12-29T15:49:29.180Z,99551.42
2018-12-29T15:52:01.201Z,99548.90
2018-12-29T15:54:33.631Z,99539.53
2018-12-29T15:57:05.618Z,99532.66
2018-12-29T15:59:37.645Z,99516.57
2018-12-29T16:02:09.670Z,99500.14
2018-12-29T16:04:41.659Z,99490.59
2018-12-29T16:07:13.712Z,99475.64
2018-12-29T16:09:45.712Z,99465.76
2018-12-29T16:12:18.091Z,99465.42
2018-12-29T16:14:50.128Z,99468.96
2018-12-29T16:17:22.137Z,99456.33
2018-12-29T16:19:54.446Z,99456.14
2018-12-29T16:22:26.412Z,99463.31
2018-12-29T16:24:58.450Z,99478.20
2018-12-29T16:27:30.468Z,99473.42
2018-12-29T16:30:02.523Z,99485.76
2018-12-29T16:32:34.575Z,99505.63
2018-12-29T16:35:06.623Z,99510.87
2018-12-29T16:37:38.619Z,99525.66
2018-12-29T16:40:10.682Z,99535.73
2018-12-29T16:42:42.691Z,99533.23
2018-12-29T16:45:14.737Z,99526.39
2018-12-29T16:47:46.730Z,99530.19
2018-12-29T16:50:18.746Z,99535.80
2018-12-29T16:52:50.802Z,99543.53
2018-12-29T16:55:22.857Z,99565.00
2018-12-29T16:57:54.900Z,99575.66
2018-12-29T17:00:26.988Z,99574.72
2018-12-29T17:02:59.007Z,99573.27
2018-12-29T17:05:31.052Z,99570.90
2018-12-29T17:08:03.476Z,99571.64
2018-12-29T17:10:35.580Z,99575.24
2018-12-29T17:13:07.589Z,99569.30
2018-12-29T17:15:39.642Z,99570.01
2018-12-29T17:18:12.091Z,99571.11
2018-12-29T17:20:44.092Z,99564.09
2018-12-29T17:23:16.125Z,99566.77
2018-12-29T17:25:48.142Z,99574.75
2018-12-29T17:28:20.184Z,99563.19
2018-12-29T17:30:52.184Z,99562.14
2018-12-29T17:33:24.257Z,99554.50
2018-12-29T17:35:56.267Z,99545.32
2018-12-29T17:38:28.317Z,99528.86
2018-12-29T17:41:00.345Z,99508.28
2018-12-29T17:43:32.575Z,99513.18
2018-12-29T17:46:04.626Z,99512.44
2018-12-29T17:48:36.613Z,99501.07
2018-12-29T17:51:08.616Z,99493.86
2018-12-29T17:53:47.733Z,99501.25
2018-12-29T17:56:14.553Z,99508.68
2018-12-29T17:58:46.611Z,99500.58
2018-12-29T18:01:18.648Z,99498.27
2018-12-29T18:03:50.697Z,99493.89
2018-12-29T18:06:22.759Z,99490.25
2018-12-29T18:08:54.805Z,99478.88
2018-12-29T18:11:26.813Z,99477.06
2018-12-29T18:13:58.915Z,99484.64
2018-12-29T18:16:30.933Z,99495.19
2018-12-29T18:19:02.982Z,99501.31
2018-12-29T18:21:34.944Z,99494.11
2018-12-29T18:24:06.993Z,99492.81
2018-12-29T18:26:39.063Z,99495.30
2018-12-29T18:29:11.613Z,99485.31
2018-12-29T18:31:43.643Z,99477.95
2018-12-29T18:34:15.692Z,99460.87
2018-12-29T18:36:47.752Z,99464.88
2018-12-29T18:39:19.958Z,99459.00
2018-12-29T18:41:51.963Z,99452.91
2018-12-29T18:44:23.981Z,99458.17
2018-12-29T18:46:56.306Z,99462.67
2018-12-29T18:49:28.615Z,99469.92
2018-12-29T18:52:00.700Z,99454.17
2018-12-29T18:54:32.748Z,99451.42
2018-12-29T18:57:04.837Z,99448.38
2018-12-29T18:59:36.859Z,99446.37
2018-12-29T19:02:08.938Z,99458.86
2018-12-29T19:04:41.341Z,99469.67
2018-12-29T19:07:13.434Z,99471.86
2018-12-29T19:09:45.930Z,99478.66
2018-12-29T19:12:18.092Z,99481.01
2018-12-29T19:14:50.107Z,99472.12
2018-12-29T19:17:22.175Z,99466.70
2018-12-29T19:19:54.598Z,99487.26
2018-12-29T19:22:26.682Z,99497.37
2018-12-29T19:25:00.304Z,99513.80
2018-12-29T19:27:32.667Z,99499.89
2018-12-29T19:30:05.775Z,99494.31
2018-12-29T19:32:38.273Z,99516.70
2018-12-29T19:35:10.334Z,99512.91
2018-12-29T19:37:42.418Z,99514.50
2018-12-29T19:40:14.472Z,99490.05
2018-12-29T19:42:46.924Z,99490.05
2018-12-29T19:45:18.935Z,99479.67
2018-12-29T19:47:51.200Z,99487.52
2018-12-29T19:50:23.692Z,99486.03
2018-12-29T19:52:55.731Z,99487.33
2018-12-29T19:55:27.761Z,99478.93
2018-12-29T19:57:59.859Z,99463.42
2018-12-29T20:00:32.269Z,99439.73
2018-12-29T20:03:04.351Z,99429.81
2018-12-29T20:05:36.589Z,99434.02
2018-12-29T20:08:08.647Z,99428.03
2018-12-29T20:10:40.695Z,99418.33
2018-12-29T20:13:12.763Z,99401.01
2018-12-29T20:15:44.783Z,99391.04
2018-12-29T20:18:16.866Z,99373.71
2018-12-29T20:20:48.934Z,99375.77
2018-12-29T20:23:21.271Z,99376.80
2018-12-29T20:25:53.368Z,99374.56
2018-12-29T20:28:25.420Z,99378.44
2018-12-29T20:30:57.537Z,99377.33
2018-12-29T20:33:29.883Z,99365.42
2018-12-29T20:36:01.957Z,99358.88
2018-12-29T20:38:34.011Z,99349.04
2018-12-29T20:41:06.155Z,99335.27
2018-12-29T20:43:38.630Z,99329.72
2018-12-29T20:46:10.674Z,99336.85
2018-12-29T20:49:23.464Z,99335.60
2018-12-29T20:51:55.492Z,99329.84
2018-12-29T20:54:27.508Z,99324.86
2018-12-29T20:56:59.600Z,99318.53
2018-12-29T20:59:33.544Z,99329.07
2018-12-29T21:02:05.585Z,99332.78
2018-12-29T21:04:37.739Z,99317.43
2018-12-29T21:07:09.808Z,99323.14
2018-12-29T21:09:41.895Z,99339.48
2018-12-29T21:12:13.961Z,99329.29
2018-12-29T21:14:46.010Z,99330.18
2018-12-29T21:17:18.031Z,99329.84
2018-12-29T21:19:50.153Z,99330.09
2018-12-29T21:22:22.218Z,99323.34
2018-12-29T21:24:54.203Z,99316.41
2018-12-29T21:27:26.316Z,99312.48
2018-12-29T21:29:58.397Z,99318.80
2018-12-29T21:32:32.345Z,99306.87
2018-12-29T21:35:04.626Z,99305.42
2018-12-29T21:37:56.104Z,99312.63
2018-12-29T21:40:28.589Z,99307.48
2018-12-29T21:43:00.633Z,99303.04
2018-12-29T21:45:32.690Z,99293.67
2018-12-29T21:48:04.766Z,99291.66
2018-12-29T21:50:36.897Z,99299.80
2018-12-29T21:53:08.956Z,99302.33
2018-12-29T21:55:40.994Z,99299.72
2018-12-29T21:58:13.091Z,99301.06
2018-12-29T22:00:45.080Z,99293.86
2018-12-29T22:03:17.131Z,99289.92
2018-12-29T22:05:49.200Z,99284.31
2018-12-29T22:08:21.254Z,99295.35
2018-12-29T22:10:53.295Z,99300.17
2018-12-29T22:13:25.662Z,99297.46
2018-12-29T22:15:57.665Z,99293.81
2018-12-29T22:18:29.757Z,99278.33
2018-12-29T22:21:01.818Z,99280.34
2018-12-29T22:23:33.871Z,99279.78
2018-12-29T22:26:05.938Z,99271.31
2018-12-29T22:28:37.997Z,99257.75
2018-12-29T22:31:10.052Z,99285.95
2018-12-29T22:33:42.070Z,99276.78
2018-12-29T22:36:14.129Z,99266.96
2018-12-29T22:38:46.115Z,99268.27
2018-12-29T22:41:18.154Z,99259.30
2018-12-29T22:43:50.149Z,99267.80
2018-12-29T22:46:22.399Z,99277.20
2018-12-29T22:48:54.401Z,99280.91
2018-12-29T22:51:26.442Z,99274.92
2018-12-29T22:53:58.464Z,99274.54
2018-12-29T22:56:30.964Z,99288.25
2018-12-29T22:59:03.028Z,99296.53
2018-12-29T23:01:35.182Z,99299.20
2018-12-29T23:04:07.204Z,99282.95
2018-12-29T23:06:39.349Z,99281.32
2018-12-29T23:09:11.747Z,99272.53
2018-12-29T23:11:43.793Z,99284.66
2018-12-29T23:14:15.922Z,99279.64
2018-12-29T23:16:47.925Z,99267.89
2018-12-29T23:19:20.136Z,99250.16
2018-12-29T23:21:52.164Z,99243.47
2018-12-29T23:24:24.138Z,99237.80
2018-12-29T23:26:56.166Z,99242.79
2018-12-29T23:29:28.165Z,99247.16
2018-12-29T23:32:00.203Z,99247.06
2018-12-29T23:34:32.611Z,99245.66
2018-12-29T23:37:04.626Z,99249.65
2018-12-29T23:39:36.706Z,99254.14
2018-12-29T23:42:08.727Z,99254.52
2018-12-29T23:44:40.719Z,99249.30
2018-12-29T23:47:12.813Z,99256.19
2018-12-29T23:49:44.842Z,99249.20
2018-12-29T23:52:17.250Z,99250.24
2018-12-29T23:54:49.283Z,99255.10
2018-12-29T23:57:21.520Z,99250.24
2018-12-29T23:59:53.539Z,99249.87
